createdAt,value
2022-12-22T00:01:22.536Z,1.63
2022-12-22T00:05:37.657Z,1.68
2022-12-22T00:09:49.514Z,1.63
2022-12-22T00:14:03.840Z,1.53
2022-12-22T00:18:15.048Z,1.57
2022-12-22T00:22:32.883Z,1.57
2022-12-22T00:26:44.314Z,1.63
2022-12-22T00:30:56.092Z,1.64
2022-12-22T00:35:08.054Z,1.55
2022-12-22T00:39:19.220Z,1.62
2022-12-22T00:43:30.965Z,1.66
2022-12-22T00:47:47.945Z,1.67
2022-12-22T00:51:59.287Z,1.52
2022-12-22T00:56:10.598Z,1.47
2022-12-22T01:00:23.867Z,1.56
2022-12-22T01:04:35.009Z,1.63
2022-12-22T01:08:46.851Z,1.60
2022-12-22T01:12:59.779Z,1.60
2022-12-22T01:17:11.356Z,1.64
2022-12-22T01:21:27.132Z,1.66
2022-12-22T01:25:38.987Z,1.67
2022-12-22T01:29:50.537Z,1.64
2022-12-22T01:34:02.079Z,1.60
2022-12-22T01:38:13.409Z,1.64
2022-12-22T01:42:24.769Z,1.77
2022-12-22T01:46:47.842Z,1.66
2022-12-22T01:50:59.163Z,1.63
2022-12-22T01:55:12.735Z,1.62
2022-12-22T01:59:23.995Z,1.66
2022-12-22T02:03:41.001Z,1.56
2022-12-22T02:08:17.343Z,1.67
2022-12-22T02:13:09.063Z,1.71
2022-12-22T02:17:32.199Z,1.68
2022-12-22T02:21:45.639Z,1.67
2022-12-22T02:26:05.644Z,1.63
2022-12-22T02:30:21.689Z,1.60
2022-12-22T02:34:34.007Z,1.60
2022-12-22T02:39:00.308Z,1.57
2022-12-22T02:43:22.110Z,1.70
2022-12-22T02:48:02.663Z,1.77
2022-12-22T02:52:24.034Z,1.74
2022-12-22T02:56:35.797Z,1.70
2022-12-22T03:00:47.221Z,1.55
2022-12-22T03:04:58.594Z,1.47
2022-12-22T03:09:09.892Z,1.49
2022-12-22T03:13:21.097Z,1.62
2022-12-22T03:17:32.498Z,1.59
2022-12-22T03:21:44.267Z,1.59
2022-12-22T03:25:53.322Z,1.67
2022-12-22T03:29:46.043Z,1.60
2022-12-22T03:33:39.400Z,1.50
2022-12-22T03:37:31.815Z,1.52
2022-12-22T03:41:43.737Z,1.66
2022-12-22T03:45:54.980Z,1.59
2022-12-22T03:49:47.707Z,1.59
2022-12-22T03:53:40.392Z,1.68
2022-12-22T03:57:33.318Z,1.73
2022-12-22T04:01:32.519Z,1.68
2022-12-22T04:05:25.948Z,1.63
2022-12-22T04:09:18.887Z,1.78
2022-12-22T04:13:11.559Z,1.77
2022-12-22T04:17:05.858Z,1.78
2022-12-22T04:20:58.768Z,1.88
2022-12-22T04:24:51.524Z,1.90
2022-12-22T04:28:44.189Z,1.88
2022-12-22T04:32:37.082Z,1.93
2022-12-22T04:36:29.804Z,1.91
2022-12-22T04:40:22.397Z,1.85
2022-12-22T04:44:15.082Z,1.83
2022-12-22T04:48:07.624Z,1.83
2022-12-22T04:52:00.346Z,1.80
2022-12-22T04:56:01.422Z,1.78
2022-12-22T04:59:55.591Z,1.77
2022-12-22T05:03:48.310Z,1.85
2022-12-22T05:07:41.131Z,1.78
2022-12-22T05:11:34.612Z,1.68
2022-12-22T05:15:32.843Z,1.67
2022-12-22T05:19:30.595Z,1.85
2022-12-22T05:23:24.110Z,1.83
2022-12-22T05:27:17.667Z,1.81
2022-12-22T05:31:16.277Z,2.03
2022-12-22T05:35:09.530Z,1.81
2022-12-22T05:39:02.056Z,1.71
2022-12-22T05:42:54.893Z,1.68
2022-12-22T05:46:51.200Z,1.78
2022-12-22T05:50:43.811Z,1.71
2022-12-22T05:54:36.510Z,1.76
2022-12-22T05:58:29.212Z,1.78
2022-12-22T06:02:22.324Z,1.84
2022-12-22T06:06:15.239Z,1.74
2022-12-22T06:10:12.699Z,1.80
2022-12-22T06:14:05.643Z,1.98
2022-12-22T06:17:58.720Z,2.12
2022-12-22T06:21:51.535Z,2.20
2022-12-22T06:25:54.331Z,2.00
2022-12-22T06:29:46.894Z,1.87
2022-12-22T06:33:39.738Z,1.84
2022-12-22T06:37:33.118Z,1.93
2022-12-22T06:41:44.728Z,2.03
2022-12-22T06:45:39.717Z,1.98
2022-12-22T06:49:32.511Z,2.04
2022-12-22T06:53:25.888Z,2.10
2022-12-22T06:57:18.676Z,2.01
2022-12-22T07:01:12.962Z,2.04
2022-12-22T07:05:06.410Z,2.05
2022-12-22T07:08:59.223Z,2.07
2022-12-22T07:12:53.533Z,2.07
2022-12-22T07:16:47.667Z,2.05
2022-12-22T07:20:40.641Z,2.15
2022-12-22T07:24:33.511Z,2.15
2022-12-22T07:28:26.397Z,2.42
2022-12-22T07:32:19.287Z,2.36
2022-12-22T07:36:15.505Z,2.41
2022-12-22T07:40:08.936Z,2.48
2022-12-22T07:44:02.478Z,2.53
2022-12-22T07:48:02.241Z,2.49
2022-12-22T07:51:57.728Z,2.66
2022-12-22T07:55:50.289Z,2.63
2022-12-22T07:59:42.991Z,2.61
2022-12-22T08:03:36.085Z,2.60
2022-12-22T08:07:28.762Z,2.86
2022-12-22T08:11:21.645Z,2.83
2022-12-22T08:15:14.653Z,2.70
2022-12-22T08:19:07.347Z,2.61
2022-12-22T08:23:00.105Z,2.60
2022-12-22T08:26:57.160Z,2.70
2022-12-22T08:30:50.015Z,2.84
2022-12-22T08:34:43.478Z,3.04
2022-12-22T08:38:38.815Z,3.19
2022-12-22T08:42:33.383Z,3.28
2022-12-22T08:46:26.153Z,3.15
2022-12-22T08:50:19.298Z,3.14
2022-12-22T08:54:12.336Z,3.15
2022-12-22T08:58:05.162Z,3.28
2022-12-22T09:01:58.459Z,3.21
2022-12-22T09:05:51.230Z,3.11
2022-12-22T09:09:44.213Z,3.00
2022-12-22T09:13:37.150Z,2.97
2022-12-22T09:17:29.752Z,3.17
2022-12-22T09:21:24.680Z,3.25
2022-12-22T09:25:18.705Z,3.12
2022-12-22T09:29:11.638Z,3.05
2022-12-22T09:33:04.607Z,3.21
2022-12-22T09:36:57.533Z,3.31
2022-12-22T09:40:50.325Z,3.32
2022-12-22T09:44:46.232Z,3.36
2022-12-22T09:48:38.899Z,3.49
2022-12-22T09:52:34.641Z,3.59
2022-12-22T09:56:29.509Z,3.67
2022-12-22T10:00:28.658Z,3.84
2022-12-22T10:04:36.403Z,3.72
2022-12-22T10:08:35.340Z,3.72
2022-12-22T10:12:28.553Z,3.97
2022-12-22T10:16:27.947Z,4.12
2022-12-22T10:20:29.855Z,4.07
2022-12-22T10:24:29.861Z,4.10
2022-12-22T10:28:25.849Z,3.95
2022-12-22T10:32:21.290Z,3.79
2022-12-22T10:36:19.970Z,3.90
2022-12-22T10:40:18.892Z,4.15
2022-12-22T10:44:21.562Z,4.07
2022-12-22T10:48:14.477Z,4.18
2022-12-22T10:52:25.416Z,4.12
2022-12-22T10:56:30.506Z,4.19
2022-12-22T11:00:31.508Z,4.35
2022-12-22T11:04:28.401Z,4.18
2022-12-22T11:08:21.277Z,4.11
2022-12-22T11:12:56.153Z,4.29
2022-12-22T11:16:55.085Z,4.37
2022-12-22T11:21:06.293Z,4.41
2022-12-22T11:25:24.054Z,4.14
2022-12-22T11:29:26.435Z,4.29
2022-12-22T11:33:36.257Z,4.27
2022-12-22T11:37:54.100Z,4.21
2022-12-22T11:42:08.464Z,4.08
2022-12-22T11:46:28.597Z,4.14
2022-12-22T11:50:58.847Z,4.17
2022-12-22T11:54:58.401Z,4.22
2022-12-22T11:59:29.508Z,4.24
2022-12-22T12:03:36.907Z,4.12
2022-12-22T12:07:43.213Z,4.14
2022-12-22T12:11:43.051Z,4.08
2022-12-22T12:15:41.231Z,4.05
2022-12-22T12:19:54.896Z,4.04
2022-12-22T12:24:09.483Z,4.01
2022-12-22T12:28:39.933Z,4.07
2022-12-22T12:32:53.879Z,4.02
2022-12-22T12:37:07.123Z,4.10
2022-12-22T12:41:32.355Z,4.41
2022-12-22T12:45:42.991Z,4.42
2022-12-22T12:49:36.254Z,4.27
2022-12-22T12:53:30.839Z,4.17
2022-12-22T12:57:26.505Z,4.14
2022-12-22T13:01:27.247Z,4.19
2022-12-22T13:05:47.562Z,4.22
2022-12-22T13:10:07.207Z,4.27
2022-12-22T13:13:59.995Z,4.24
2022-12-22T13:17:52.658Z,4.18
2022-12-22T13:21:54.910Z,4.21
2022-12-22T13:25:59.183Z,4.28
2022-12-22T13:29:52.605Z,4.27
2022-12-22T13:33:45.991Z,4.22
2022-12-22T13:37:45.053Z,4.19
2022-12-22T13:41:41.343Z,4.15
2022-12-22T13:45:42.473Z,4.12
2022-12-22T13:50:07.366Z,4.15
2022-12-22T13:54:10.421Z,4.25
2022-12-22T13:58:25.857Z,4.18
2022-12-22T14:02:21.195Z,4.25
2022-12-22T14:06:34.338Z,4.14
2022-12-22T14:10:34.470Z,4.07
2022-12-22T14:14:39.795Z,3.94
2022-12-22T14:18:33.899Z,4.10
2022-12-22T14:22:33.123Z,3.97
2022-12-22T14:26:29.606Z,4.14
2022-12-22T14:30:26.683Z,3.95
2022-12-22T14:34:30.670Z,3.84
2022-12-22T14:38:25.865Z,3.87
2022-12-22T14:42:18.950Z,3.87
2022-12-22T14:46:11.919Z,3.90
2022-12-22T14:50:29.356Z,3.97
2022-12-22T14:54:26.736Z,4.00
2022-12-22T14:58:31.394Z,4.02
2022-12-22T15:02:49.611Z,3.97
2022-12-22T15:06:46.175Z,3.93
2022-12-22T15:10:44.340Z,4.01
2022-12-22T15:14:39.121Z,3.80
2022-12-22T15:18:33.232Z,3.67
2022-12-22T15:22:26.015Z,3.84
2022-12-22T15:26:18.602Z,3.69
2022-12-22T15:30:14.055Z,3.64
2022-12-22T15:34:28.138Z,3.59
2022-12-22T15:38:23.389Z,3.72
2022-12-22T15:42:16.378Z,3.66
2022-12-22T15:46:15.204Z,3.67
2022-12-22T15:50:15.646Z,3.63
2022-12-22T15:54:14.112Z,3.64
2022-12-22T15:58:06.992Z,3.90
2022-12-22T16:02:01.653Z,3.89
2022-12-22T16:05:55.060Z,3.63
2022-12-22T16:09:48.940Z,3.73
2022-12-22T16:13:41.909Z,3.77
2022-12-22T16:17:34.619Z,3.55
2022-12-22T16:21:31.782Z,3.39
2022-12-22T16:25:34.296Z,3.38
2022-12-22T16:29:27.772Z,3.52
2022-12-22T16:33:20.643Z,3.52
2022-12-22T16:37:13.295Z,3.79
2022-12-22T16:41:16.609Z,3.43
2022-12-22T16:45:22.712Z,3.43
2022-12-22T16:49:24.584Z,3.42
2022-12-22T16:53:19.211Z,3.60
2022-12-22T16:57:11.933Z,3.56
2022-12-22T17:01:05.614Z,3.49
2022-12-22T17:05:01.297Z,3.56
2022-12-22T17:08:54.525Z,3.63
2022-12-22T17:12:48.189Z,3.52
2022-12-22T17:16:40.710Z,3.59
2022-12-22T17:20:33.476Z,3.40
2022-12-22T17:24:28.742Z,3.49
2022-12-22T17:28:21.687Z,3.31
2022-12-22T17:32:14.700Z,3.63
2022-12-22T17:36:18.505Z,3.62
2022-12-22T17:40:31.931Z,3.51
2022-12-22T17:44:26.904Z,3.36
2022-12-22T17:48:19.653Z,3.28
2022-12-22T17:52:18.306Z,3.12
2022-12-22T17:56:19.425Z,3.35
2022-12-22T18:00:24.842Z,3.22
2022-12-22T18:04:17.571Z,3.32
2022-12-22T18:08:19.548Z,3.24
2022-12-22T18:12:21.841Z,3.40
2022-12-22T18:16:17.437Z,3.26
2022-12-22T18:20:15.138Z,3.17
2022-12-22T18:24:14.421Z,3.31
2022-12-22T18:28:13.163Z,3.09
2022-12-22T18:32:08.347Z,3.12
2022-12-22T18:36:01.705Z,3.26
2022-12-22T18:39:54.809Z,3.24
2022-12-22T18:43:48.366Z,3.36
2022-12-22T18:47:40.967Z,3.51
2022-12-22T18:51:34.618Z,3.40
2022-12-22T18:55:33.145Z,3.19
2022-12-22T18:59:31.413Z,3.31
2022-12-22T19:03:29.537Z,3.07
2022-12-22T19:07:25.204Z,3.24
2022-12-22T19:11:26.889Z,3.18
2022-12-22T19:15:30.468Z,3.05
2022-12-22T19:19:23.528Z,3.12
2022-12-22T19:23:19.335Z,3.21
2022-12-22T19:27:20.525Z,3.22
2022-12-22T19:31:22.839Z,3.34
2022-12-22T19:35:21.860Z,3.22
2022-12-22T19:39:16.416Z,3.04
2022-12-22T19:43:11.243Z,3.18
2022-12-22T19:47:11.156Z,3.00
2022-12-22T19:51:05.604Z,3.11
2022-12-22T19:54:58.801Z,3.25
2022-12-22T19:58:52.377Z,3.11
2022-12-22T20:02:46.777Z,3.18
2022-12-22T20:06:40.095Z,3.31
2022-12-22T20:10:35.206Z,3.14
2022-12-22T20:14:28.764Z,3.21
2022-12-22T20:18:25.537Z,3.35
2022-12-22T20:22:23.275Z,3.22
2022-12-22T20:26:21.159Z,3.36
2022-12-22T20:30:22.094Z,3.38
2022-12-22T20:34:15.556Z,3.25
2022-12-22T20:38:15.139Z,3.24
2022-12-22T20:42:23.112Z,3.31
2022-12-22T20:46:24.132Z,3.40
2022-12-22T20:50:27.816Z,3.45
2022-12-22T20:54:20.830Z,3.51
2022-12-22T20:58:20.121Z,3.51
2022-12-22T21:02:22.675Z,3.48
2022-12-22T21:06:29.219Z,3.52
2022-12-22T21:10:26.610Z,3.52
2022-12-22T21:14:19.329Z,3.52
2022-12-22T21:18:23.144Z,3.58
2022-12-22T21:22:16.279Z,3.55
2022-12-22T21:26:23.116Z,3.49
2022-12-22T21:30:22.662Z,3.69
2022-12-22T21:34:15.356Z,3.72
2022-12-22T21:38:15.099Z,3.64
2022-12-22T21:42:13.839Z,3.79
2022-12-22T21:46:06.530Z,3.95
2022-12-22T21:49:59.427Z,4.35
2022-12-22T21:53:52.299Z,4.42
2022-12-22T21:57:45.254Z,4.48
2022-12-22T22:01:40.933Z,4.60
2022-12-22T22:05:38.737Z,4.60
2022-12-22T22:09:37.048Z,4.66
2022-12-22T22:13:29.713Z,4.72
2022-12-22T22:17:22.313Z,4.73
2022-12-22T22:21:21.034Z,4.72
2022-12-22T22:25:15.470Z,4.79
2022-12-22T22:29:08.284Z,4.80
2022-12-22T22:33:01.172Z,4.80
2022-12-22T22:36:54.005Z,4.79
2022-12-22T22:40:48.335Z,4.97
2022-12-22T22:44:41.257Z,5.13
2022-12-22T22:48:33.971Z,5.08
2022-12-22T22:52:27.046Z,4.98
2022-12-22T22:56:19.860Z,4.66
2022-12-22T23:00:15.464Z,4.46
2022-12-22T23:04:08.964Z,4.38
2022-12-22T23:08:01.808Z,4.38
2022-12-22T23:11:55.021Z,4.34
2022-12-22T23:16:00.290Z,4.25
2022-12-22T23:19:53.303Z,4.46
2022-12-22T23:23:46.262Z,4.67
2022-12-22T23:27:39.009Z,4.77
2022-12-22T23:31:34.012Z,4.79
2022-12-22T23:35:26.537Z,4.88
2022-12-22T23:39:19.367Z,4.90
2022-12-22T23:43:13.336Z,4.94
2022-12-22T23:47:05.966Z,4.91
2022-12-22T23:50:58.944Z,4.87
2022-12-22T23:54:51.629Z,4.90
2022-12-22T23:58:47.043Z,4.86
